• Join FlightAware (Why Join?)
  • Login
  • US Flag 
01:03PM EST


 

Airport Tracker/Info


-or-


 

Live Flight TrackerFlight Track Log ✈ LBQ652 ✈ 19-Jun-2013 ✈ KPTK - KDPA

Flight Track Log - Related Links

Times and Time Zones

All times are in EDT time to prevent confusion due to time zone crossing. See the LBQ652 flight status page for this flight to view local times or setup timezone preferences in your user account.

Time Position Orientation Groundspeed Altitude Reporting Facility
EDT Latitude Longitude Course Direction KTS MPH feet Rate Location/Type
02:46AM 42.6844 -83.3881 32° Northeast 167 192 3,100  Level Cleveland Center
02:48AM 42.6886 -83.4700 274° West 182 209 5,600 2,040 Climbing Cleveland Center
02:49AM 42.6761 -83.5542 259° West 204 235 8,100 2,280 Climbing Cleveland Center
02:50AM 42.6636 -83.6383 259° West 226 260 10,200 2,100 Climbing Cleveland Center
02:51AM 42.6508 -83.7253 259° West 236 272 12,300 2,040 Climbing Cleveland Center
02:52AM 42.6378 -83.8150 259° West 241 277 14,300 1,980 Climbing Cleveland Center
02:53AM 42.6250 -83.9047 259° West 241 277 16,300 1,800 Climbing Cleveland Center
02:54AM 42.6117 -83.9997 259° West 247 284 18,000 1,800 Climbing Cleveland Center
02:55AM 42.5983 -84.0950 259° West 259 298 19,900 1,800 Climbing Cleveland Center
02:56AM 42.5828 -84.1931 258° West 259 298 21,700 1,800 Climbing Cleveland Center
02:57AM 42.5692 -84.2908 259° West 265 305 23,500 1,680 Climbing Cleveland Center
02:58AM 42.5536 -84.3914 258° West 270 311 25,100 1,500 Climbing Cleveland Center
02:59AM 42.5375 -84.4947 258° West 276 318 26,600 1,440 Climbing Cleveland Center
03:00AM 42.5272 -84.5764 260° West 278 320 27,900 720 Climbing Chicago Center
03:01AM 42.5108 -84.6869 259° West 297 342 28,000  Climbing Chicago Center
03:02AM 42.4914 -84.8108 258° West 329 379 28,000  Level Chicago Center
03:03AM 42.4717 -84.9378 258° West 344 396 28,000  Level Chicago Center
03:04AM 42.4514 -85.0697 258° West 355 409 28,000  Level Chicago Center
03:05AM 42.4314 -85.2011 258° West 357 411 28,000  Level Chicago Center
03:06AM 42.4100 -85.3331 258° West 358 412 28,000  Level Chicago Center
03:07AM 42.3889 -85.4656 258° West 360 414 28,000  Level Chicago Center
03:08AM 42.3669 -85.6000 258° West 360 414 28,000  Level Chicago Center
03:09AM 42.3461 -85.7300 258° West 360 414 28,000  Level Chicago Center
03:10AM 42.3250 -85.8639 258° West 362 417 28,000  Level Chicago Center
03:11AM 42.3017 -85.9978 257° West 365 420 28,000  Level Chicago Center
03:12AM 42.2792 -86.1392 258° West 361 415 28,000  Level Chicago Center
03:13AM 42.2558 -86.2742 257° West 367 422 28,000  Level Chicago Center
03:14AM 42.2336 -86.4067 257° West 365 420 28,000  Level Chicago Center
03:15AM 42.2111 -86.5397 257° West 366 421 28,000  Level Chicago Center
03:16AM 42.1867 -86.6856 257° West 365 420 28,000  Level Chicago Center
03:17AM 42.1650 -86.8175 258° West 363 418 28,000 -120 Level Chicago Center
03:18AM 42.1419 -86.9517 257° West 368 423 27,800 -1,560 Descending Chicago Center
03:19AM 42.1172 -87.0831 256° West 366 421 24,900 -3,000 Descending Chicago Center
03:20AM 42.0944 -87.2142 257° West 363 418 21,800 -2,880 Descending Chicago Center
03:21AM 42.0731 -87.3369 257° West 345 397 19,100 -2,640 Descending Chicago Center
03:22AM 42.0522 -87.4511 256° West 323 372 16,600 -2,520 Descending Chicago Center
03:23AM 42.0322 -87.5633 257° West 313 360 14,100 -2,460 Descending Chicago Center
03:24AM 42.0136 -87.6692 257° West 297 342 11,700 -2,400 Descending Chicago Center
03:25AM 41.9950 -87.7714 256° West 287 330 9,400 -2,280 Descending Chicago Center
03:26AM 41.9772 -87.8669 256° West 271 312 7,200 -2,280 Descending Chicago Center
03:27AM 41.9667 -87.9667 262° West 299 344 5,200 -2,040 Descending Chicago TRACON
03:28AM 41.9333 -88.0500 242° Southwest 254 292 3,500 -900 Descending Chicago TRACON
03:29AM 41.9167 -88.1333 255° West 202 232 3,500 -240 Level Chicago TRACON
03:30AM 41.9000 -88.1833 246° West 171 197 3,100 -780 Descending Chicago TRACON
03:31AM 41.8667 -88.2333 228° Southwest 159 183 2,000 -1,080 Descending Chicago TRACON
03:32AM 41.8833 -88.2500 323° Northwest 128 147 1,000 -1,020 Descending Chicago TRACON
03:34AM 41.9000 -88.2333 37° Northeast  Level FlightAware Approximate